sensor_id;sensor_type;location;lat;lon;timestamp;P1;durP1;ratioP1;P2;durP2;ratioP2
61741;SDS011;47650;49.848;9.620;2023-11-21T00:01:18;8.57;;;3.55;;
61741;SDS011;47650;49.848;9.620;2023-11-21T00:03:43;9.07;;;3.10;;
61741;SDS011;47650;49.848;9.620;2023-11-21T00:06:09;8.70;;;3.58;;
61741;SDS011;47650;49.848;9.620;2023-11-21T00:08:37;7.57;;;3.45;;
61741;SDS011;47650;49.848;9.620;2023-11-21T00:11:02;8.68;;;2.97;;
61741;SDS011;47650;49.848;9.620;2023-11-21T00:13:30;8.65;;;3.17;;
61741;SDS011;47650;49.848;9.620;2023-11-21T00:15:56;10.43;;;3.25;;
61741;SDS011;47650;49.848;9.620;2023-11-21T00:18:21;10.35;;;2.83;;
61741;SDS011;47650;49.848;9.620;2023-11-21T00:20:46;7.75;;;2.80;;
61741;SDS011;47650;49.848;9.620;2023-11-21T00:23:13;6.50;;;2.83;;
61741;SDS011;47650;49.848;9.620;2023-11-21T00:25:38;8.13;;;2.70;;
61741;SDS011;47650;49.848;9.620;2023-11-21T00:28:05;8.68;;;2.67;;
61741;SDS011;47650;49.848;9.620;2023-11-21T00:30:30;6.47;;;2.65;;
61741;SDS011;47650;49.848;9.620;2023-11-21T00:32:56;9.90;;;3.17;;
61741;SDS011;47650;49.848;9.620;2023-11-21T00:35:22;9.60;;;3.28;;
61741;SDS011;47650;49.848;9.620;2023-11-21T00:37:47;8.20;;;3.67;;
61741;SDS011;47650;49.848;9.620;2023-11-21T00:40:15;9.77;;;3.63;;
61741;SDS011;47650;49.848;9.620;2023-11-21T00:42:44;17.05;;;3.92;;
61741;SDS011;47650;49.848;9.620;2023-11-21T00:45:11;8.18;;;3.88;;
61741;SDS011;47650;49.848;9.620;2023-11-21T00:47:36;11.43;;;3.88;;
61741;SDS011;47650;49.848;9.620;2023-11-21T00:50:03;8.68;;;3.92;;
61741;SDS011;47650;49.848;9.620;2023-11-21T00:52:31;8.93;;;3.72;;
61741;SDS011;47650;49.848;9.620;2023-11-21T00:54:56;8.13;;;3.22;;
61741;SDS011;47650;49.848;9.620;2023-11-21T00:57:24;11.00;;;3.67;;
61741;SDS011;47650;49.848;9.620;2023-11-21T00:59:50;9.35;;;3.50;;
61741;SDS011;47650;49.848;9.620;2023-11-21T01:02:15;9.57;;;2.90;;
61741;SDS011;47650;49.848;9.620;2023-11-21T01:04:41;10.02;;;3.50;;
61741;SDS011;47650;49.848;9.620;2023-11-21T01:07:06;8.45;;;3.17;;
61741;SDS011;47650;49.848;9.620;2023-11-21T01:09:33;9.23;;;2.92;;
61741;SDS011;47650;49.848;9.620;2023-11-21T01:11:58;8.82;;;3.30;;
61741;SDS011;47650;49.848;9.620;2023-11-21T01:14:24;10.70;;;3.30;;
61741;SDS011;47650;49.848;9.620;2023-11-21T01:16:54;10.27;;;3.90;;
61741;SDS011;47650;49.848;9.620;2023-11-21T01:19:19;10.70;;;3.75;;
61741;SDS011;47650;49.848;9.620;2023-11-21T01:21:45;7.75;;;3.70;;
61741;SDS011;47650;49.848;9.620;2023-11-21T01:24:14;7.40;;;3.15;;
61741;SDS011;47650;49.848;9.620;2023-11-21T01:26:39;9.23;;;3.80;;
61741;SDS011;47650;49.848;9.620;2023-11-21T01:29:04;8.73;;;3.40;;
61741;SDS011;47650;49.848;9.620;2023-11-21T01:31:30;7.22;;;3.00;;
61741;SDS011;47650;49.848;9.620;2023-11-21T01:33:56;7.18;;;3.40;;
61741;SDS011;47650;49.848;9.620;2023-11-21T01:36:21;7.85;;;3.25;;
61741;SDS011;47650;49.848;9.620;2023-11-21T01:38:47;10.32;;;3.42;;
61741;SDS011;47650;49.848;9.620;2023-11-21T01:41:15;10.57;;;3.70;;
61741;SDS011;47650;49.848;9.620;2023-11-21T01:43:41;10.20;;;3.60;;
61741;SDS011;47650;49.848;9.620;2023-11-21T01:46:07;8.88;;;3.55;;
61741;SDS011;47650;49.848;9.620;2023-11-21T01:48:33;7.55;;;4.03;;
61741;SDS011;47650;49.848;9.620;2023-11-21T01:50:59;8.73;;;3.30;;
61741;SDS011;47650;49.848;9.620;2023-11-21T01:53:26;10.45;;;4.43;;
61741;SDS011;47650;49.848;9.620;2023-11-21T01:55:52;8.05;;;4.72;;
61741;SDS011;47650;49.848;9.620;2023-11-21T01:58:18;8.40;;;3.58;;
61741;SDS011;47650;49.848;9.620;2023-11-21T02:00:45;11.93;;;4.63;;
61741;SDS011;47650;49.848;9.620;2023-11-21T02:03:10;10.18;;;4.38;;
61741;SDS011;47650;49.848;9.620;2023-11-21T02:05:37;14.30;;;5.15;;
61741;SDS011;47650;49.848;9.620;2023-11-21T02:08:03;15.95;;;8.55;;
61741;SDS011;47650;49.848;9.620;2023-11-21T02:10:30;12.77;;;6.88;;
61741;SDS011;47650;49.848;9.620;2023-11-21T02:12:56;11.93;;;7.15;;
61741;SDS011;47650;49.848;9.620;2023-11-21T02:15:22;13.93;;;7.53;;
61741;SDS011;47650;49.848;9.620;2023-11-21T02:17:52;16.83;;;8.15;;
61741;SDS011;47650;49.848;9.620;2023-11-21T02:20:19;17.45;;;9.25;;
61741;SDS011;47650;49.848;9.620;2023-11-21T02:25:28;18.20;;;9.57;;
61741;SDS011;47650;49.848;9.620;2023-11-21T02:27:55;19.73;;;9.02;;
61741;SDS011;47650;49.848;9.620;2023-11-21T02:30:23;20.98;;;9.57;;
61741;SDS011;47650;49.848;9.620;2023-11-21T02:32:59;20.77;;;9.60;;
61741;SDS011;47650;49.848;9.620;2023-11-21T02:35:27;18.98;;;10.18;;
61741;SDS011;47650;49.848;9.620;2023-11-21T02:37:53;14.05;;;7.70;;
61741;SDS011;47650;49.848;9.620;2023-11-21T02:40:18;12.95;;;7.72;;
61741;SDS011;47650;49.848;9.620;2023-11-21T02:42:48;14.00;;;8.98;;
61741;SDS011;47650;49.848;9.620;2023-11-21T02:45:16;19.48;;;9.48;;
61741;SDS011;47650;49.848;9.620;2023-11-21T02:47:45;9.43;;;6.10;;
61741;SDS011;47650;49.848;9.620;2023-11-21T02:50:10;12.55;;;6.95;;
61741;SDS011;47650;49.848;9.620;2023-11-21T02:52:36;13.30;;;6.78;;
61741;SDS011;47650;49.848;9.620;2023-11-21T02:55:03;11.60;;;6.20;;
61741;SDS011;47650;49.848;9.620;2023-11-21T02:57:32;8.93;;;6.47;;
61741;SDS011;47650;49.848;9.620;2023-11-21T02:59:58;12.15;;;6.90;;
61741;SDS011;47650;49.848;9.620;2023-11-21T03:02:25;12.35;;;8.02;;
61741;SDS011;47650;49.848;9.620;2023-11-21T03:04:51;16.00;;;9.32;;
61741;SDS011;47650;49.848;9.620;2023-11-21T03:07:17;13.73;;;7.30;;
61741;SDS011;47650;49.848;9.620;2023-11-21T03:09:46;17.90;;;8.18;;
61741;SDS011;47650;49.848;9.620;2023-11-21T03:12:13;16.02;;;8.02;;
61741;SDS011;47650;49.848;9.620;2023-11-21T03:14:42;20.00;;;9.18;;
61741;SDS011;47650;49.848;9.620;2023-11-21T03:17:07;19.25;;;9.82;;
61741;SDS011;47650;49.848;9.620;2023-11-21T03:19:33;17.38;;;10.05;;
61741;SDS011;47650;49.848;9.620;2023-11-21T03:21:59;17.23;;;10.00;;
61741;SDS011;47650;49.848;9.620;2023-11-21T03:24:25;28.90;;;13.23;;
61741;SDS011;47650;49.848;9.620;2023-11-21T03:26:51;14.88;;;9.00;;
61741;SDS011;47650;49.848;9.620;2023-11-21T03:29:16;18.13;;;10.77;;
61741;SDS011;47650;49.848;9.620;2023-11-21T03:31:42;23.38;;;12.32;;
61741;SDS011;47650;49.848;9.620;2023-11-21T03:34:09;15.80;;;9.27;;
61741;SDS011;47650;49.848;9.620;2023-11-21T03:36:39;15.23;;;8.63;;
61741;SDS011;47650;49.848;9.620;2023-11-21T03:39:04;18.75;;;10.13;;
61741;SDS011;47650;49.848;9.620;2023-11-21T03:41:30;25.35;;;12.10;;
61741;SDS011;47650;49.848;9.620;2023-11-21T03:43:55;18.65;;;10.32;;
61741;SDS011;47650;49.848;9.620;2023-11-21T03:46:21;17.33;;;9.25;;
61741;SDS011;47650;49.848;9.620;2023-11-21T03:48:46;19.15;;;10.40;;
61741;SDS011;47650;49.848;9.620;2023-11-21T03:51:11;14.23;;;8.63;;
61741;SDS011;47650;49.848;9.620;2023-11-21T03:53:36;24.00;;;9.65;;
61741;SDS011;47650;49.848;9.620;2023-11-21T03:56:02;14.23;;;9.30;;
61741;SDS011;47650;49.848;9.620;2023-11-21T03:58:29;19.13;;;11.57;;
61741;SDS011;47650;49.848;9.620;2023-11-21T04:00:55;20.20;;;10.10;;
61741;SDS011;47650;49.848;9.620;2023-11-21T04:03:21;25.20;;;11.13;;
61741;SDS011;47650;49.848;9.620;2023-11-21T04:05:48;36.65;;;14.30;;
61741;SDS011;47650;49.848;9.620;2023-11-21T04:08:13;23.60;;;11.93;;
61741;SDS011;47650;49.848;9.620;2023-11-21T04:10:38;31.27;;;12.85;;
61741;SDS011;47650;49.848;9.620;2023-11-21T04:13:04;48.55;;;16.30;;
61741;SDS011;47650;49.848;9.620;2023-11-21T04:15:31;29.13;;;14.20;;
61741;SDS011;47650;49.848;9.620;2023-11-21T04:17:57;41.40;;;20.98;;
61741;SDS011;47650;49.848;9.620;2023-11-21T04:20:22;44.05;;;20.10;;
61741;SDS011;47650;49.848;9.620;2023-11-21T04:22:48;27.00;;;14.40;;
61741;SDS011;47650;49.848;9.620;2023-11-21T04:25:15;29.25;;;13.48;;
61741;SDS011;47650;49.848;9.620;2023-11-21T04:27:40;23.02;;;12.30;;
61741;SDS011;47650;49.848;9.620;2023-11-21T04:30:09;20.27;;;11.30;;
61741;SDS011;47650;49.848;9.620;2023-11-21T04:32:36;25.10;;;14.95;;
61741;SDS011;47650;49.848;9.620;2023-11-21T04:35:02;11.23;;;7.68;;
61741;SDS011;47650;49.848;9.620;2023-11-21T04:37:29;12.43;;;8.02;;
61741;SDS011;47650;49.848;9.620;2023-11-21T04:39:54;20.17;;;11.70;;
61741;SDS011;47650;49.848;9.620;2023-11-21T04:42:20;16.92;;;9.43;;
61741;SDS011;47650;49.848;9.620;2023-11-21T04:44:45;17.95;;;7.13;;
61741;SDS011;47650;49.848;9.620;2023-11-21T04:47:10;20.05;;;10.90;;
61741;SDS011;47650;49.848;9.620;2023-11-21T04:49:36;13.10;;;8.55;;
61741;SDS011;47650;49.848;9.620;2023-11-21T04:52:01;16.27;;;9.80;;
61741;SDS011;47650;49.848;9.620;2023-11-21T04:54:28;14.73;;;8.55;;
61741;SDS011;47650;49.848;9.620;2023-11-21T04:56:56;14.55;;;7.13;;
61741;SDS011;47650;49.848;9.620;2023-11-21T04:59:22;14.02;;;8.50;;
61741;SDS011;47650;49.848;9.620;2023-11-21T05:01:50;19.38;;;10.18;;
61741;SDS011;47650;49.848;9.620;2023-11-21T05:04:15;15.73;;;10.63;;
61741;SDS011;47650;49.848;9.620;2023-11-21T05:06:41;18.60;;;12.40;;
61741;SDS011;47650;49.848;9.620;2023-11-21T05:09:06;17.55;;;10.07;;
61741;SDS011;47650;49.848;9.620;2023-11-21T05:11:36;17.17;;;9.38;;
61741;SDS011;47650;49.848;9.620;2023-11-21T05:14:02;18.08;;;9.20;;
61741;SDS011;47650;49.848;9.620;2023-11-21T05:16:28;16.52;;;8.10;;
61741;SDS011;47650;49.848;9.620;2023-11-21T05:18:54;17.23;;;10.25;;
61741;SDS011;47650;49.848;9.620;2023-11-21T05:21:25;22.42;;;12.50;;
61741;SDS011;47650;49.848;9.620;2023-11-21T05:23:50;19.13;;;12.15;;
61741;SDS011;47650;49.848;9.620;2023-11-21T05:26:17;19.83;;;11.23;;
61741;SDS011;47650;49.848;9.620;2023-11-21T05:28:42;20.08;;;11.00;;
61741;SDS011;47650;49.848;9.620;2023-11-21T05:31:07;15.18;;;9.32;;
61741;SDS011;47650;49.848;9.620;2023-11-21T05:33:33;18.30;;;9.15;;
61741;SDS011;47650;49.848;9.620;2023-11-21T05:35:59;11.85;;;8.80;;
61741;SDS011;47650;49.848;9.620;2023-11-21T05:38:24;15.77;;;8.15;;
61741;SDS011;47650;49.848;9.620;2023-11-21T05:40:49;11.18;;;6.43;;
61741;SDS011;47650;49.848;9.620;2023-11-21T05:43:15;15.35;;;8.68;;
61741;SDS011;47650;49.848;9.620;2023-11-21T05:45:40;12.43;;;8.05;;
61741;SDS011;47650;49.848;9.620;2023-11-21T05:48:05;17.35;;;9.25;;
61741;SDS011;47650;49.848;9.620;2023-11-21T05:50:31;13.63;;;10.35;;
61741;SDS011;47650;49.848;9.620;2023-11-21T05:52:57;19.10;;;9.88;;
61741;SDS011;47650;49.848;9.620;2023-11-21T05:55:25;38.40;;;17.02;;
61741;SDS011;47650;49.848;9.620;2023-11-21T05:57:50;29.48;;;13.35;;
61741;SDS011;47650;49.848;9.620;2023-11-21T06:00:16;44.58;;;22.35;;
61741;SDS011;47650;49.848;9.620;2023-11-21T06:02:50;34.83;;;16.33;;
61741;SDS011;47650;49.848;9.620;2023-11-21T06:05:18;31.95;;;16.23;;
61741;SDS011;47650;49.848;9.620;2023-11-21T06:07:45;24.25;;;13.13;;
61741;SDS011;47650;49.848;9.620;2023-11-21T06:10:10;22.25;;;12.52;;
61741;SDS011;47650;49.848;9.620;2023-11-21T06:12:39;30.52;;;14.25;;
61741;SDS011;47650;49.848;9.620;2023-11-21T06:15:07;29.77;;;18.13;;
61741;SDS011;47650;49.848;9.620;2023-11-21T06:17:34;38.58;;;28.05;;
61741;SDS011;47650;49.848;9.620;2023-11-21T06:20:02;34.28;;;19.00;;
61741;SDS011;47650;49.848;9.620;2023-11-21T06:22:37;33.42;;;17.92;;
61741;SDS011;47650;49.848;9.620;2023-11-21T06:25:04;29.77;;;15.95;;
61741;SDS011;47650;49.848;9.620;2023-11-21T06:27:31;34.25;;;17.52;;
61741;SDS011;47650;49.848;9.620;2023-11-21T06:29:59;32.97;;;16.55;;
61741;SDS011;47650;49.848;9.620;2023-11-21T06:32:25;25.73;;;15.82;;
61741;SDS011;47650;49.848;9.620;2023-11-21T06:34:51;26.30;;;14.50;;
61741;SDS011;47650;49.848;9.620;2023-11-21T06:37:19;27.83;;;15.15;;
61741;SDS011;47650;49.848;9.620;2023-11-21T06:39:48;29.98;;;16.95;;
61741;SDS011;47650;49.848;9.620;2023-11-21T06:42:13;36.53;;;18.42;;
61741;SDS011;47650;49.848;9.620;2023-11-21T06:44:39;37.55;;;19.83;;
61741;SDS011;47650;49.848;9.620;2023-11-21T06:47:06;36.47;;;18.30;;
61741;SDS011;47650;49.848;9.620;2023-11-21T06:49:32;38.08;;;18.75;;
61741;SDS011;47650;49.848;9.620;2023-11-21T06:51:57;43.05;;;18.50;;
61741;SDS011;47650;49.848;9.620;2023-11-21T06:54:23;30.05;;;16.63;;
61741;SDS011;47650;49.848;9.620;2023-11-21T06:56:49;36.58;;;18.23;;
61741;SDS011;47650;49.848;9.620;2023-11-21T06:59:15;43.88;;;18.90;;
61741;SDS011;47650;49.848;9.620;2023-11-21T07:01:40;32.28;;;17.45;;
61741;SDS011;47650;49.848;9.620;2023-11-21T07:04:06;29.48;;;15.80;;
61741;SDS011;47650;49.848;9.620;2023-11-21T07:06:32;33.85;;;16.95;;
61741;SDS011;47650;49.848;9.620;2023-11-21T07:08:57;53.47;;;26.30;;
61741;SDS011;47650;49.848;9.620;2023-11-21T07:11:23;35.80;;;18.27;;
61741;SDS011;47650;49.848;9.620;2023-11-21T07:13:49;41.20;;;19.40;;
61741;SDS011;47650;49.848;9.620;2023-11-21T07:16:14;39.08;;;18.48;;
61741;SDS011;47650;49.848;9.620;2023-11-21T07:18:40;39.67;;;18.30;;
61741;SDS011;47650;49.848;9.620;2023-11-21T07:21:06;36.70;;;18.10;;
61741;SDS011;47650;49.848;9.620;2023-11-21T07:23:32;39.05;;;17.85;;
61741;SDS011;47650;49.848;9.620;2023-11-21T07:25:57;36.83;;;18.30;;
61741;SDS011;47650;49.848;9.620;2023-11-21T07:28:23;34.20;;;17.25;;
61741;SDS011;47650;49.848;9.620;2023-11-21T07:30:50;33.08;;;17.73;;
61741;SDS011;47650;49.848;9.620;2023-11-21T07:33:17;26.67;;;16.02;;
61741;SDS011;47650;49.848;9.620;2023-11-21T07:35:45;38.13;;;18.90;;
61741;SDS011;47650;49.848;9.620;2023-11-21T07:38:11;32.60;;;17.60;;
61741;SDS011;47650;49.848;9.620;2023-11-21T07:40:37;26.92;;;16.30;;
61741;SDS011;47650;49.848;9.620;2023-11-21T07:43:02;30.42;;;18.92;;
61741;SDS011;47650;49.848;9.620;2023-11-21T07:45:28;26.67;;;16.33;;
61741;SDS011;47650;49.848;9.620;2023-11-21T07:47:53;37.35;;;19.67;;
61741;SDS011;47650;49.848;9.620;2023-11-21T07:50:20;38.88;;;20.23;;
61741;SDS011;47650;49.848;9.620;2023-11-21T07:52:47;33.47;;;16.90;;
61741;SDS011;47650;49.848;9.620;2023-11-21T07:55:14;33.75;;;17.25;;
61741;SDS011;47650;49.848;9.620;2023-11-21T07:57:40;35.22;;;17.42;;
61741;SDS011;47650;49.848;9.620;2023-11-21T08:00:06;33.65;;;18.58;;
61741;SDS011;47650;49.848;9.620;2023-11-21T08:02:34;33.92;;;17.73;;
61741;SDS011;47650;49.848;9.620;2023-11-21T08:05:00;27.92;;;16.65;;
61741;SDS011;47650;49.848;9.620;2023-11-21T08:07:25;33.60;;;18.63;;
61741;SDS011;47650;49.848;9.620;2023-11-21T08:09:51;42.60;;;19.67;;
61741;SDS011;47650;49.848;9.620;2023-11-21T08:12:17;40.75;;;17.95;;
61741;SDS011;47650;49.848;9.620;2023-11-21T08:14:43;42.50;;;17.77;;
61741;SDS011;47650;49.848;9.620;2023-11-21T08:17:10;31.05;;;16.13;;
61741;SDS011;47650;49.848;9.620;2023-11-21T08:19:36;44.08;;;20.48;;
61741;SDS011;47650;49.848;9.620;2023-11-21T08:22:02;44.78;;;20.10;;
61741;SDS011;47650;49.848;9.620;2023-11-21T08:24:28;43.47;;;19.33;;
61741;SDS011;47650;49.848;9.620;2023-11-21T08:26:54;44.92;;;18.38;;
61741;SDS011;47650;49.848;9.620;2023-11-21T08:29:21;29.65;;;16.83;;
61741;SDS011;47650;49.848;9.620;2023-11-21T08:31:48;41.15;;;18.08;;
61741;SDS011;47650;49.848;9.620;2023-11-21T08:34:14;24.25;;;14.68;;
61741;SDS011;47650;49.848;9.620;2023-11-21T08:36:43;28.90;;;15.95;;
61741;SDS011;47650;49.848;9.620;2023-11-21T08:39:08;27.98;;;15.90;;
61741;SDS011;47650;49.848;9.620;2023-11-21T08:41:34;25.65;;;14.65;;
61741;SDS011;47650;49.848;9.620;2023-11-21T08:44:01;33.25;;;16.42;;
61741;SDS011;47650;49.848;9.620;2023-11-21T08:46:27;18.13;;;11.85;;
61741;SDS011;47650;49.848;9.620;2023-11-21T08:48:53;17.10;;;12.10;;
61741;SDS011;47650;49.848;9.620;2023-11-21T08:51:18;14.48;;;10.50;;
61741;SDS011;47650;49.848;9.620;2023-11-21T08:53:43;17.52;;;11.43;;
61741;SDS011;47650;49.848;9.620;2023-11-21T08:56:15;15.73;;;9.77;;
61741;SDS011;47650;49.848;9.620;2023-11-21T08:58:40;14.75;;;9.63;;
61741;SDS011;47650;49.848;9.620;2023-11-21T09:01:07;12.60;;;9.60;;
61741;SDS011;47650;49.848;9.620;2023-11-21T09:03:32;13.73;;;10.25;;
61741;SDS011;47650;49.848;9.620;2023-11-21T09:05:59;15.73;;;11.27;;
61741;SDS011;47650;49.848;9.620;2023-11-21T09:08:25;12.25;;;9.30;;
61741;SDS011;47650;49.848;9.620;2023-11-21T09:10:54;12.10;;;9.32;;
61741;SDS011;47650;49.848;9.620;2023-11-21T09:13:19;11.93;;;8.98;;
61741;SDS011;47650;49.848;9.620;2023-11-21T09:15:46;12.18;;;8.88;;
61741;SDS011;47650;49.848;9.620;2023-11-21T09:18:14;12.25;;;9.95;;
61741;SDS011;47650;49.848;9.620;2023-11-21T09:20:40;11.40;;;9.43;;
61741;SDS011;47650;49.848;9.620;2023-11-21T09:23:05;15.98;;;11.23;;
61741;SDS011;47650;49.848;9.620;2023-11-21T09:25:32;11.20;;;8.52;;
61741;SDS011;47650;49.848;9.620;2023-11-21T09:27:58;10.70;;;8.75;;
61741;SDS011;47650;49.848;9.620;2023-11-21T09:30:23;11.18;;;8.70;;
61741;SDS011;47650;49.848;9.620;2023-11-21T09:32:49;9.48;;;8.32;;
61741;SDS011;47650;49.848;9.620;2023-11-21T09:35:15;10.13;;;6.95;;
61741;SDS011;47650;49.848;9.620;2023-11-21T09:37:43;9.10;;;7.30;;
61741;SDS011;47650;49.848;9.620;2023-11-21T09:40:10;11.38;;;7.05;;
61741;SDS011;47650;49.848;9.620;2023-11-21T09:42:49;10.07;;;7.03;;
61741;SDS011;47650;49.848;9.620;2023-11-21T09:47:59;7.13;;;5.07;;
61741;SDS011;47650;49.848;9.620;2023-11-21T09:50:26;6.72;;;5.47;;
61741;SDS011;47650;49.848;9.620;2023-11-21T09:52:58;6.50;;;4.40;;
61741;SDS011;47650;49.848;9.620;2023-11-21T09:55:42;5.45;;;3.88;;
61741;SDS011;47650;49.848;9.620;2023-11-21T09:58:09;4.07;;;3.10;;
61741;SDS011;47650;49.848;9.620;2023-11-21T10:00:41;4.68;;;2.75;;
61741;SDS011;47650;49.848;9.620;2023-11-21T10:03:11;6.90;;;2.92;;
61741;SDS011;47650;49.848;9.620;2023-11-21T10:05:37;4.68;;;3.00;;
61741;SDS011;47650;49.848;9.620;2023-11-21T10:08:07;5.28;;;2.50;;
61741;SDS011;47650;49.848;9.620;2023-11-21T10:10:35;4.32;;;2.47;;
61741;SDS011;47650;49.848;9.620;2023-11-21T10:13:03;5.38;;;2.53;;
61741;SDS011;47650;49.848;9.620;2023-11-21T10:15:35;6.53;;;4.00;;
61741;SDS011;47650;49.848;9.620;2023-11-21T10:18:05;6.05;;;3.25;;
61741;SDS011;47650;49.848;9.620;2023-11-21T10:20:32;4.32;;;2.60;;
61741;SDS011;47650;49.848;9.620;2023-11-21T10:22:59;4.25;;;2.47;;
61741;SDS011;47650;49.848;9.620;2023-11-21T10:25:28;5.88;;;2.90;;
61741;SDS011;47650;49.848;9.620;2023-11-21T10:28:01;4.88;;;2.63;;
61741;SDS011;47650;49.848;9.620;2023-11-21T10:30:35;5.43;;;3.10;;
61741;SDS011;47650;49.848;9.620;2023-11-21T10:33:02;6.45;;;2.83;;
61741;SDS011;47650;49.848;9.620;2023-11-21T10:38:07;6.35;;;2.90;;
61741;SDS011;47650;49.848;9.620;2023-11-21T10:40:37;3.72;;;2.30;;
61741;SDS011;47650;49.848;9.620;2023-11-21T10:43:07;5.78;;;2.60;;
61741;SDS011;47650;49.848;9.620;2023-11-21T10:45:38;4.35;;;2.45;;
61741;SDS011;47650;49.848;9.620;2023-11-21T10:48:07;3.65;;;2.30;;
61741;SDS011;47650;49.848;9.620;2023-11-21T10:50:34;3.40;;;2.20;;
61741;SDS011;47650;49.848;9.620;2023-11-21T10:53:03;7.15;;;2.30;;
61741;SDS011;47650;49.848;9.620;2023-11-21T10:55:34;4.15;;;2.00;;
61741;SDS011;47650;49.848;9.620;2023-11-21T10:58:00;6.85;;;2.35;;
61741;SDS011;47650;49.848;9.620;2023-11-21T11:00:29;4.00;;;2.20;;
61741;SDS011;47650;49.848;9.620;2023-11-21T11:02:55;4.75;;;2.15;;
61741;SDS011;47650;49.848;9.620;2023-11-21T11:05:25;3.17;;;1.88;;
61741;SDS011;47650;49.848;9.620;2023-11-21T11:08:02;3.80;;;1.98;;
61741;SDS011;47650;49.848;9.620;2023-11-21T11:10:29;5.00;;;1.70;;
61741;SDS011;47650;49.848;9.620;2023-11-21T11:12:55;3.05;;;1.60;;
61741;SDS011;47650;49.848;9.620;2023-11-21T11:15:22;3.05;;;1.60;;
61741;SDS011;47650;49.848;9.620;2023-11-21T11:17:49;6.47;;;2.00;;
61741;SDS011;47650;49.848;9.620;2023-11-21T11:20:15;4.00;;;1.40;;
61741;SDS011;47650;49.848;9.620;2023-11-21T11:22:50;3.70;;;1.73;;
61741;SDS011;47650;49.848;9.620;2023-11-21T11:25:53;5.10;;;1.80;;
61741;SDS011;47650;49.848;9.620;2023-11-21T11:28:29;3.22;;;1.70;;
61741;SDS011;47650;49.848;9.620;2023-11-21T11:34:04;3.00;;;1.50;;
61741;SDS011;47650;49.848;9.620;2023-11-21T11:39:26;2.50;;;1.45;;
61741;SDS011;47650;49.848;9.620;2023-11-21T11:41:56;3.42;;;1.77;;
61741;SDS011;47650;49.848;9.620;2023-11-21T11:52:48;3.55;;;1.50;;
61741;SDS011;47650;49.848;9.620;2023-11-21T11:55:16;5.30;;;2.10;;
61741;SDS011;47650;49.848;9.620;2023-11-21T11:57:52;3.95;;;1.60;;
61741;SDS011;47650;49.848;9.620;2023-11-21T12:00:21;2.45;;;1.55;;
61741;SDS011;47650;49.848;9.620;2023-11-21T12:05:20;3.58;;;1.65;;
61741;SDS011;47650;49.848;9.620;2023-11-21T12:10:14;3.28;;;1.40;;
61741;SDS011;47650;49.848;9.620;2023-11-21T12:12:46;2.13;;;1.35;;
61741;SDS011;47650;49.848;9.620;2023-11-21T12:15:13;2.90;;;1.55;;
61741;SDS011;47650;49.848;9.620;2023-11-21T12:17:39;2.15;;;1.40;;
61741;SDS011;47650;49.848;9.620;2023-11-21T12:20:08;2.03;;;1.30;;
61741;SDS011;47650;49.848;9.620;2023-11-21T12:22:43;3.78;;;1.50;;
61741;SDS011;47650;49.848;9.620;2023-11-21T12:25:10;2.22;;;1.35;;
61741;SDS011;47650;49.848;9.620;2023-11-21T12:27:41;3.17;;;1.37;;
61741;SDS011;47650;49.848;9.620;2023-11-21T12:30:08;2.40;;;1.52;;
61741;SDS011;47650;49.848;9.620;2023-11-21T12:32:38;2.00;;;1.20;;
61741;SDS011;47650;49.848;9.620;2023-11-21T12:35:05;2.00;;;1.30;;
61741;SDS011;47650;49.848;9.620;2023-11-21T12:37:31;1.50;;;1.30;;
61741;SDS011;47650;49.848;9.620;2023-11-21T12:39:58;2.38;;;1.30;;
61741;SDS011;47650;49.848;9.620;2023-11-21T12:42:26;1.65;;;1.30;;
61741;SDS011;47650;49.848;9.620;2023-11-21T12:47:42;1.92;;;1.27;;
61741;SDS011;47650;49.848;9.620;2023-11-21T12:50:08;2.75;;;1.55;;
61741;SDS011;47650;49.848;9.620;2023-11-21T12:52:42;1.65;;;1.30;;
61741;SDS011;47650;49.848;9.620;2023-11-21T12:55:22;2.28;;;1.40;;
61741;SDS011;47650;49.848;9.620;2023-11-21T12:57:54;2.83;;;1.50;;
61741;SDS011;47650;49.848;9.620;2023-11-21T13:00:27;5.80;;;1.85;;
61741;SDS011;47650;49.848;9.620;2023-11-21T13:02:57;1.65;;;1.17;;
61741;SDS011;47650;49.848;9.620;2023-11-21T13:05:25;1.98;;;1.25;;
61741;SDS011;47650;49.848;9.620;2023-11-21T13:07:51;1.90;;;1.10;;
61741;SDS011;47650;49.848;9.620;2023-11-21T13:10:25;1.63;;;1.00;;
61741;SDS011;47650;49.848;9.620;2023-11-21T13:12:55;3.00;;;1.25;;
61741;SDS011;47650;49.848;9.620;2023-11-21T13:15:26;1.75;;;1.20;;
61741;SDS011;47650;49.848;9.620;2023-11-21T13:17:53;1.35;;;0.95;;
61741;SDS011;47650;49.848;9.620;2023-11-21T13:20:19;4.82;;;1.10;;
61741;SDS011;47650;49.848;9.620;2023-11-21T13:23:07;3.67;;;2.22;;
61741;SDS011;47650;49.848;9.620;2023-11-21T13:25:38;3.60;;;1.40;;
61741;SDS011;47650;49.848;9.620;2023-11-21T13:28:07;3.17;;;1.48;;
61741;SDS011;47650;49.848;9.620;2023-11-21T13:30:34;2.03;;;1.10;;
61741;SDS011;47650;49.848;9.620;2023-11-21T13:33:00;2.30;;;1.20;;
61741;SDS011;47650;49.848;9.620;2023-11-21T13:35:37;4.05;;;1.45;;
61741;SDS011;47650;49.848;9.620;2023-11-21T13:38:07;3.50;;;2.00;;
61741;SDS011;47650;49.848;9.620;2023-11-21T13:40:39;4.20;;;1.90;;
61741;SDS011;47650;49.848;9.620;2023-11-21T13:43:11;4.10;;;1.65;;
61741;SDS011;47650;49.848;9.620;2023-11-21T13:45:44;4.85;;;1.95;;
61741;SDS011;47650;49.848;9.620;2023-11-21T13:48:11;2.63;;;1.40;;
61741;SDS011;47650;49.848;9.620;2023-11-21T13:50:44;5.80;;;1.95;;
61741;SDS011;47650;49.848;9.620;2023-11-21T13:53:21;4.78;;;1.65;;
61741;SDS011;47650;49.848;9.620;2023-11-21T13:55:49;5.25;;;1.90;;
61741;SDS011;47650;49.848;9.620;2023-11-21T13:58:16;6.03;;;1.70;;
61741;SDS011;47650;49.848;9.620;2023-11-21T14:00:46;8.55;;;2.20;;
61741;SDS011;47650;49.848;9.620;2023-11-21T14:03:12;5.45;;;2.20;;
61741;SDS011;47650;49.848;9.620;2023-11-21T14:05:51;4.50;;;1.80;;
61741;SDS011;47650;49.848;9.620;2023-11-21T14:08:19;7.75;;;2.17;;
61741;SDS011;47650;49.848;9.620;2023-11-21T14:10:46;4.47;;;1.70;;
61741;SDS011;47650;49.848;9.620;2023-11-21T14:13:20;6.82;;;1.98;;
61741;SDS011;47650;49.848;9.620;2023-11-21T14:15:48;7.28;;;2.33;;
61741;SDS011;47650;49.848;9.620;2023-11-21T14:18:22;8.18;;;2.17;;
61741;SDS011;47650;49.848;9.620;2023-11-21T14:20:57;7.50;;;2.15;;
61741;SDS011;47650;49.848;9.620;2023-11-21T14:23:22;5.43;;;1.85;;
61741;SDS011;47650;49.848;9.620;2023-11-21T14:25:48;6.50;;;1.80;;
61741;SDS011;47650;49.848;9.620;2023-11-21T14:28:15;9.20;;;2.53;;
61741;SDS011;47650;49.848;9.620;2023-11-21T14:30:42;7.57;;;2.05;;
61741;SDS011;47650;49.848;9.620;2023-11-21T14:33:07;5.93;;;2.42;;
61741;SDS011;47650;49.848;9.620;2023-11-21T14:35:35;4.93;;;2.10;;
61741;SDS011;47650;49.848;9.620;2023-11-21T14:38:00;5.85;;;2.10;;
61741;SDS011;47650;49.848;9.620;2023-11-21T14:40:30;5.45;;;1.83;;
61741;SDS011;47650;49.848;9.620;2023-11-21T14:43:00;5.93;;;2.10;;
61741;SDS011;47650;49.848;9.620;2023-11-21T14:45:26;6.85;;;2.47;;
61741;SDS011;47650;49.848;9.620;2023-11-21T14:47:52;7.03;;;2.55;;
61741;SDS011;47650;49.848;9.620;2023-11-21T14:50:42;6.78;;;2.50;;
61741;SDS011;47650;49.848;9.620;2023-11-21T14:53:27;7.65;;;2.53;;
61741;SDS011;47650;49.848;9.620;2023-11-21T14:56:08;8.43;;;3.10;;
61741;SDS011;47650;49.848;9.620;2023-11-21T14:58:35;9.65;;;2.30;;
61741;SDS011;47650;49.848;9.620;2023-11-21T15:01:02;6.57;;;2.50;;
61741;SDS011;47650;49.848;9.620;2023-11-21T15:03:29;7.80;;;2.78;;
61741;SDS011;47650;49.848;9.620;2023-11-21T15:05:58;5.38;;;2.33;;
61741;SDS011;47650;49.848;9.620;2023-11-21T15:08:25;7.38;;;2.97;;